sensor_id;sensor_type;location;lat;lon;timestamp;P1;durP1;ratioP1;P2;durP2;ratioP2
22363;SDS011;11349;53.412;-1.328;2023-09-07T00:01:31;17.23;;;12.57;;
22363;SDS011;11349;53.412;-1.328;2023-09-07T00:03:57;18.65;;;13.10;;
22363;SDS011;11349;53.412;-1.328;2023-09-07T00:06:23;18.73;;;11.88;;
22363;SDS011;11349;53.412;-1.328;2023-09-07T00:08:48;20.85;;;12.52;;
22363;SDS011;11349;53.412;-1.328;2023-09-07T00:11:14;15.98;;;11.52;;
22363;SDS011;11349;53.412;-1.328;2023-09-07T00:13:40;13.05;;;10.15;;
22363;SDS011;11349;53.412;-1.328;2023-09-07T00:16:05;17.27;;;12.10;;
22363;SDS011;11349;53.412;-1.328;2023-09-07T00:18:32;14.73;;;11.88;;
22363;SDS011;11349;53.412;-1.328;2023-09-07T00:20:58;14.02;;;11.30;;
22363;SDS011;11349;53.412;-1.328;2023-09-07T00:23:25;14.35;;;10.68;;
22363;SDS011;11349;53.412;-1.328;2023-09-07T00:25:51;17.95;;;11.93;;
22363;SDS011;11349;53.412;-1.328;2023-09-07T00:28:17;15.15;;;10.35;;
22363;SDS011;11349;53.412;-1.328;2023-09-07T00:30:43;14.13;;;10.77;;
22363;SDS011;11349;53.412;-1.328;2023-09-07T00:33:09;15.13;;;11.75;;
22363;SDS011;11349;53.412;-1.328;2023-09-07T00:35:35;17.08;;;11.65;;
22363;SDS011;11349;53.412;-1.328;2023-09-07T00:38:01;14.90;;;11.07;;
22363;SDS011;11349;53.412;-1.328;2023-09-07T00:40:28;13.70;;;11.15;;
22363;SDS011;11349;53.412;-1.328;2023-09-07T00:42:55;15.90;;;11.07;;
22363;SDS011;11349;53.412;-1.328;2023-09-07T00:45:20;18.23;;;9.63;;
22363;SDS011;11349;53.412;-1.328;2023-09-07T00:47:46;13.13;;;8.82;;
22363;SDS011;11349;53.412;-1.328;2023-09-07T00:50:12;13.25;;;8.68;;
22363;SDS011;11349;53.412;-1.328;2023-09-07T00:52:39;11.25;;;9.48;;
22363;SDS011;11349;53.412;-1.328;2023-09-07T00:55:11;11.70;;;8.32;;
22363;SDS011;11349;53.412;-1.328;2023-09-07T00:57:38;10.57;;;7.43;;
22363;SDS011;11349;53.412;-1.328;2023-09-07T01:00:05;10.43;;;7.50;;
22363;SDS011;11349;53.412;-1.328;2023-09-07T01:02:32;12.82;;;7.72;;
22363;SDS011;11349;53.412;-1.328;2023-09-07T01:04:58;11.00;;;7.32;;
22363;SDS011;11349;53.412;-1.328;2023-09-07T01:07:25;11.43;;;7.55;;
22363;SDS011;11349;53.412;-1.328;2023-09-07T01:09:57;13.75;;;7.63;;
22363;SDS011;11349;53.412;-1.328;2023-09-07T01:12:26;10.10;;;6.97;;
22363;SDS011;11349;53.412;-1.328;2023-09-07T01:14:52;11.43;;;6.80;;
22363;SDS011;11349;53.412;-1.328;2023-09-07T01:17:18;11.65;;;7.38;;
22363;SDS011;11349;53.412;-1.328;2023-09-07T01:19:46;10.77;;;7.32;;
22363;SDS011;11349;53.412;-1.328;2023-09-07T01:22:15;8.13;;;6.20;;
22363;SDS011;11349;53.412;-1.328;2023-09-07T01:24:47;11.50;;;7.43;;
22363;SDS011;11349;53.412;-1.328;2023-09-07T01:27:13;11.77;;;7.32;;
22363;SDS011;11349;53.412;-1.328;2023-09-07T01:29:39;12.75;;;7.15;;
22363;SDS011;11349;53.412;-1.328;2023-09-07T01:32:05;12.50;;;7.03;;
22363;SDS011;11349;53.412;-1.328;2023-09-07T01:34:31;9.45;;;7.60;;
22363;SDS011;11349;53.412;-1.328;2023-09-07T01:36:57;10.15;;;6.43;;
22363;SDS011;11349;53.412;-1.328;2023-09-07T01:39:23;11.35;;;6.70;;
22363;SDS011;11349;53.412;-1.328;2023-09-07T01:41:49;11.35;;;7.20;;
22363;SDS011;11349;53.412;-1.328;2023-09-07T01:44:15;10.30;;;7.03;;
22363;SDS011;11349;53.412;-1.328;2023-09-07T01:46:40;10.88;;;7.38;;
22363;SDS011;11349;53.412;-1.328;2023-09-07T01:49:06;9.38;;;7.63;;
22363;SDS011;11349;53.412;-1.328;2023-09-07T01:51:32;16.65;;;9.20;;
22363;SDS011;11349;53.412;-1.328;2023-09-07T01:53:58;17.38;;;11.05;;
22363;SDS011;11349;53.412;-1.328;2023-09-07T01:56:24;20.33;;;15.27;;
22363;SDS011;11349;53.412;-1.328;2023-09-07T01:58:49;32.75;;;19.00;;
22363;SDS011;11349;53.412;-1.328;2023-09-07T02:01:22;28.95;;;22.05;;
22363;SDS011;11349;53.412;-1.328;2023-09-07T02:03:54;32.47;;;21.92;;
22363;SDS011;11349;53.412;-1.328;2023-09-07T02:06:20;32.42;;;20.90;;
22363;SDS011;11349;53.412;-1.328;2023-09-07T02:08:46;27.98;;;20.92;;
22363;SDS011;11349;53.412;-1.328;2023-09-07T02:11:11;28.58;;;19.88;;
22363;SDS011;11349;53.412;-1.328;2023-09-07T02:13:37;25.48;;;19.08;;
22363;SDS011;11349;53.412;-1.328;2023-09-07T02:16:06;29.83;;;20.98;;
22363;SDS011;11349;53.412;-1.328;2023-09-07T02:18:32;29.40;;;20.30;;
22363;SDS011;11349;53.412;-1.328;2023-09-07T02:21:02;27.67;;;20.75;;
22363;SDS011;11349;53.412;-1.328;2023-09-07T02:23:28;27.27;;;19.55;;
22363;SDS011;11349;53.412;-1.328;2023-09-07T02:25:55;29.60;;;19.98;;
22363;SDS011;11349;53.412;-1.328;2023-09-07T02:28:21;32.00;;;20.48;;
22363;SDS011;11349;53.412;-1.328;2023-09-07T02:30:48;30.13;;;21.63;;
22363;SDS011;11349;53.412;-1.328;2023-09-07T02:33:13;32.92;;;23.13;;
22363;SDS011;11349;53.412;-1.328;2023-09-07T02:35:39;29.73;;;20.63;;
22363;SDS011;11349;53.412;-1.328;2023-09-07T02:38:05;23.80;;;19.10;;
22363;SDS011;11349;53.412;-1.328;2023-09-07T02:40:30;20.88;;;16.38;;
22363;SDS011;11349;53.412;-1.328;2023-09-07T02:42:56;18.80;;;14.55;;
22363;SDS011;11349;53.412;-1.328;2023-09-07T02:45:22;18.38;;;15.10;;
22363;SDS011;11349;53.412;-1.328;2023-09-07T02:47:48;21.50;;;15.32;;
22363;SDS011;11349;53.412;-1.328;2023-09-07T02:50:15;23.63;;;16.50;;
22363;SDS011;11349;53.412;-1.328;2023-09-07T02:52:43;29.13;;;18.77;;
22363;SDS011;11349;53.412;-1.328;2023-09-07T02:55:08;29.40;;;20.10;;
22363;SDS011;11349;53.412;-1.328;2023-09-07T02:57:34;26.15;;;19.95;;
22363;SDS011;11349;53.412;-1.328;2023-09-07T03:00:00;30.85;;;22.00;;
22363;SDS011;11349;53.412;-1.328;2023-09-07T03:02:36;31.52;;;21.67;;
22363;SDS011;11349;53.412;-1.328;2023-09-07T03:05:02;30.83;;;22.75;;
22363;SDS011;11349;53.412;-1.328;2023-09-07T03:07:32;29.67;;;22.08;;
22363;SDS011;11349;53.412;-1.328;2023-09-07T03:09:58;32.25;;;22.00;;
22363;SDS011;11349;53.412;-1.328;2023-09-07T03:12:24;29.48;;;22.15;;
22363;SDS011;11349;53.412;-1.328;2023-09-07T03:14:50;34.92;;;23.30;;
22363;SDS011;11349;53.412;-1.328;2023-09-07T03:17:16;29.70;;;22.05;;
22363;SDS011;11349;53.412;-1.328;2023-09-07T03:19:42;31.13;;;21.88;;
22363;SDS011;11349;53.412;-1.328;2023-09-07T03:22:08;31.20;;;22.45;;
22363;SDS011;11349;53.412;-1.328;2023-09-07T03:24:35;28.30;;;20.15;;
22363;SDS011;11349;53.412;-1.328;2023-09-07T03:27:00;27.33;;;19.65;;
22363;SDS011;11349;53.412;-1.328;2023-09-07T03:29:26;27.67;;;20.50;;
22363;SDS011;11349;53.412;-1.328;2023-09-07T03:31:51;27.63;;;19.58;;
22363;SDS011;11349;53.412;-1.328;2023-09-07T03:34:17;28.02;;;19.52;;
22363;SDS011;11349;53.412;-1.328;2023-09-07T03:36:44;33.33;;;17.90;;
22363;SDS011;11349;53.412;-1.328;2023-09-07T03:39:10;27.23;;;18.95;;
22363;SDS011;11349;53.412;-1.328;2023-09-07T03:41:36;27.00;;;19.05;;
22363;SDS011;11349;53.412;-1.328;2023-09-07T03:44:01;25.48;;;19.65;;
22363;SDS011;11349;53.412;-1.328;2023-09-07T03:46:27;28.58;;;20.55;;
22363;SDS011;11349;53.412;-1.328;2023-09-07T03:48:53;32.28;;;20.83;;
22363;SDS011;11349;53.412;-1.328;2023-09-07T03:51:21;32.63;;;23.35;;
22363;SDS011;11349;53.412;-1.328;2023-09-07T03:53:46;31.95;;;23.23;;
22363;SDS011;11349;53.412;-1.328;2023-09-07T03:56:12;34.05;;;25.52;;
22363;SDS011;11349;53.412;-1.328;2023-09-07T03:58:38;33.00;;;24.27;;
22363;SDS011;11349;53.412;-1.328;2023-09-07T04:01:04;32.72;;;24.50;;
22363;SDS011;11349;53.412;-1.328;2023-09-07T04:03:29;34.88;;;25.67;;
22363;SDS011;11349;53.412;-1.328;2023-09-07T04:05:55;35.10;;;24.73;;
22363;SDS011;11349;53.412;-1.328;2023-09-07T04:08:21;35.53;;;26.67;;
22363;SDS011;11349;53.412;-1.328;2023-09-07T04:10:46;40.42;;;28.80;;
22363;SDS011;11349;53.412;-1.328;2023-09-07T04:13:21;36.72;;;26.30;;
22363;SDS011;11349;53.412;-1.328;2023-09-07T04:15:47;38.30;;;27.52;;
22363;SDS011;11349;53.412;-1.328;2023-09-07T04:18:13;36.45;;;25.73;;
22363;SDS011;11349;53.412;-1.328;2023-09-07T04:20:40;39.13;;;27.38;;
22363;SDS011;11349;53.412;-1.328;2023-09-07T04:23:06;42.15;;;30.13;;
22363;SDS011;11349;53.412;-1.328;2023-09-07T04:25:32;44.10;;;31.88;;
22363;SDS011;11349;53.412;-1.328;2023-09-07T04:27:58;42.58;;;30.45;;
22363;SDS011;11349;53.412;-1.328;2023-09-07T04:30:23;46.92;;;32.85;;
22363;SDS011;11349;53.412;-1.328;2023-09-07T04:32:49;47.13;;;33.30;;
22363;SDS011;11349;53.412;-1.328;2023-09-07T04:35:15;44.72;;;31.73;;
22363;SDS011;11349;53.412;-1.328;2023-09-07T04:37:44;46.95;;;33.30;;
22363;SDS011;11349;53.412;-1.328;2023-09-07T04:40:10;45.70;;;32.83;;
22363;SDS011;11349;53.412;-1.328;2023-09-07T04:42:36;52.45;;;34.20;;
22363;SDS011;11349;53.412;-1.328;2023-09-07T04:45:05;45.55;;;32.90;;
22363;SDS011;11349;53.412;-1.328;2023-09-07T04:47:31;48.35;;;33.35;;
22363;SDS011;11349;53.412;-1.328;2023-09-07T04:49:57;46.40;;;33.08;;
22363;SDS011;11349;53.412;-1.328;2023-09-07T04:52:23;48.92;;;34.05;;
22363;SDS011;11349;53.412;-1.328;2023-09-07T04:54:49;43.40;;;32.47;;
22363;SDS011;11349;53.412;-1.328;2023-09-07T04:57:17;47.70;;;35.13;;
22363;SDS011;11349;53.412;-1.328;2023-09-07T04:59:43;54.35;;;36.75;;
22363;SDS011;11349;53.412;-1.328;2023-09-07T05:02:09;47.40;;;35.65;;
22363;SDS011;11349;53.412;-1.328;2023-09-07T05:04:34;49.08;;;35.08;;
22363;SDS011;11349;53.412;-1.328;2023-09-07T05:07:00;45.20;;;32.55;;
22363;SDS011;11349;53.412;-1.328;2023-09-07T05:09:26;49.30;;;33.72;;
22363;SDS011;11349;53.412;-1.328;2023-09-07T05:11:54;51.63;;;34.40;;
22363;SDS011;11349;53.412;-1.328;2023-09-07T05:14:20;46.25;;;34.08;;
22363;SDS011;11349;53.412;-1.328;2023-09-07T05:16:45;47.28;;;33.63;;
22363;SDS011;11349;53.412;-1.328;2023-09-07T05:19:11;45.58;;;34.60;;
22363;SDS011;11349;53.412;-1.328;2023-09-07T05:21:37;44.88;;;33.83;;
22363;SDS011;11349;53.412;-1.328;2023-09-07T05:24:02;46.28;;;33.15;;
22363;SDS011;11349;53.412;-1.328;2023-09-07T05:26:28;45.83;;;33.53;;
22363;SDS011;11349;53.412;-1.328;2023-09-07T05:28:54;50.42;;;34.90;;
22363;SDS011;11349;53.412;-1.328;2023-09-07T05:31:20;50.10;;;34.08;;
22363;SDS011;11349;53.412;-1.328;2023-09-07T05:33:46;46.45;;;34.35;;
22363;SDS011;11349;53.412;-1.328;2023-09-07T05:36:11;51.25;;;35.28;;
22363;SDS011;11349;53.412;-1.328;2023-09-07T05:38:37;42.75;;;33.40;;
22363;SDS011;11349;53.412;-1.328;2023-09-07T05:41:03;48.60;;;34.20;;
22363;SDS011;11349;53.412;-1.328;2023-09-07T05:43:28;45.25;;;33.13;;
22363;SDS011;11349;53.412;-1.328;2023-09-07T05:45:54;48.17;;;33.47;;
22363;SDS011;11349;53.412;-1.328;2023-09-07T05:48:20;46.67;;;32.20;;
22363;SDS011;11349;53.412;-1.328;2023-09-07T05:50:45;47.85;;;33.95;;
22363;SDS011;11349;53.412;-1.328;2023-09-07T05:53:11;48.85;;;34.45;;
22363;SDS011;11349;53.412;-1.328;2023-09-07T05:55:37;44.50;;;31.40;;
22363;SDS011;11349;53.412;-1.328;2023-09-07T05:58:04;45.13;;;32.10;;
22363;SDS011;11349;53.412;-1.328;2023-09-07T06:00:30;45.72;;;32.88;;
22363;SDS011;11349;53.412;-1.328;2023-09-07T06:02:56;45.75;;;31.67;;
22363;SDS011;11349;53.412;-1.328;2023-09-07T06:05:22;46.08;;;32.15;;
22363;SDS011;11349;53.412;-1.328;2023-09-07T06:07:48;45.63;;;30.83;;
22363;SDS011;11349;53.412;-1.328;2023-09-07T06:10:14;43.50;;;31.98;;
22363;SDS011;11349;53.412;-1.328;2023-09-07T06:12:40;41.47;;;30.80;;
22363;SDS011;11349;53.412;-1.328;2023-09-07T06:15:09;47.55;;;32.45;;
22363;SDS011;11349;53.412;-1.328;2023-09-07T06:17:35;42.65;;;31.20;;
22363;SDS011;11349;53.412;-1.328;2023-09-07T06:20:01;42.67;;;32.45;;
22363;SDS011;11349;53.412;-1.328;2023-09-07T06:22:28;48.50;;;33.15;;
22363;SDS011;11349;53.412;-1.328;2023-09-07T06:24:53;41.97;;;30.55;;
22363;SDS011;11349;53.412;-1.328;2023-09-07T06:27:19;46.25;;;33.28;;
22363;SDS011;11349;53.412;-1.328;2023-09-07T06:29:45;44.25;;;33.10;;
22363;SDS011;11349;53.412;-1.328;2023-09-07T06:32:11;42.28;;;32.42;;
22363;SDS011;11349;53.412;-1.328;2023-09-07T06:34:37;44.00;;;30.75;;
22363;SDS011;11349;53.412;-1.328;2023-09-07T06:37:03;39.53;;;29.77;;
22363;SDS011;11349;53.412;-1.328;2023-09-07T06:39:29;45.92;;;31.73;;
22363;SDS011;11349;53.412;-1.328;2023-09-07T06:41:55;42.25;;;32.55;;
22363;SDS011;11349;53.412;-1.328;2023-09-07T06:44:20;43.83;;;33.53;;
22363;SDS011;11349;53.412;-1.328;2023-09-07T06:46:46;45.22;;;31.25;;
22363;SDS011;11349;53.412;-1.328;2023-09-07T06:49:12;42.88;;;31.60;;
22363;SDS011;11349;53.412;-1.328;2023-09-07T06:51:38;42.92;;;31.10;;
22363;SDS011;11349;53.412;-1.328;2023-09-07T06:54:04;44.25;;;32.00;;
22363;SDS011;11349;53.412;-1.328;2023-09-07T06:56:29;49.20;;;33.22;;
22363;SDS011;11349;53.412;-1.328;2023-09-07T06:58:57;44.95;;;32.65;;
22363;SDS011;11349;53.412;-1.328;2023-09-07T07:01:22;54.42;;;34.15;;
22363;SDS011;11349;53.412;-1.328;2023-09-07T07:03:49;47.72;;;33.40;;
22363;SDS011;11349;53.412;-1.328;2023-09-07T07:06:14;50.45;;;32.20;;
22363;SDS011;11349;53.412;-1.328;2023-09-07T07:08:40;44.35;;;31.48;;
22363;SDS011;11349;53.412;-1.328;2023-09-07T07:11:06;44.55;;;31.77;;
22363;SDS011;11349;53.412;-1.328;2023-09-07T07:13:32;40.05;;;30.80;;
22363;SDS011;11349;53.412;-1.328;2023-09-07T07:15:58;39.03;;;29.33;;
22363;SDS011;11349;53.412;-1.328;2023-09-07T07:18:24;40.20;;;28.27;;
22363;SDS011;11349;53.412;-1.328;2023-09-07T07:20:50;40.55;;;27.95;;
22363;SDS011;11349;53.412;-1.328;2023-09-07T07:23:15;36.45;;;29.65;;
22363;SDS011;11349;53.412;-1.328;2023-09-07T07:25:41;36.38;;;29.65;;
22363;SDS011;11349;53.412;-1.328;2023-09-07T07:28:07;39.53;;;28.58;;
22363;SDS011;11349;53.412;-1.328;2023-09-07T07:30:33;37.42;;;28.98;;
22363;SDS011;11349;53.412;-1.328;2023-09-07T07:33:01;36.25;;;28.05;;
22363;SDS011;11349;53.412;-1.328;2023-09-07T07:35:30;40.72;;;28.20;;
22363;SDS011;11349;53.412;-1.328;2023-09-07T07:38:03;35.58;;;26.80;;
22363;SDS011;11349;53.412;-1.328;2023-09-07T07:40:32;44.22;;;28.63;;
22363;SDS011;11349;53.412;-1.328;2023-09-07T07:42:58;37.42;;;27.63;;
22363;SDS011;11349;53.412;-1.328;2023-09-07T07:45:24;31.92;;;25.60;;
22363;SDS011;11349;53.412;-1.328;2023-09-07T07:47:49;39.00;;;28.70;;
22363;SDS011;11349;53.412;-1.328;2023-09-07T07:50:16;38.38;;;27.30;;
22363;SDS011;11349;53.412;-1.328;2023-09-07T07:52:42;38.58;;;28.08;;
22363;SDS011;11349;53.412;-1.328;2023-09-07T07:55:09;37.42;;;28.27;;
22363;SDS011;11349;53.412;-1.328;2023-09-07T07:57:35;31.80;;;26.08;;
22363;SDS011;11349;53.412;-1.328;2023-09-07T08:00:01;37.03;;;26.80;;
22363;SDS011;11349;53.412;-1.328;2023-09-07T08:02:29;34.95;;;27.05;;
22363;SDS011;11349;53.412;-1.328;2023-09-07T08:04:55;33.20;;;27.45;;
22363;SDS011;11349;53.412;-1.328;2023-09-07T08:07:21;38.60;;;29.45;;
22363;SDS011;11349;53.412;-1.328;2023-09-07T08:09:47;38.20;;;30.77;;
22363;SDS011;11349;53.412;-1.328;2023-09-07T08:12:12;37.75;;;29.92;;
22363;SDS011;11349;53.412;-1.328;2023-09-07T08:14:38;35.25;;;27.60;;
22363;SDS011;11349;53.412;-1.328;2023-09-07T08:17:04;34.83;;;27.30;;
22363;SDS011;11349;53.412;-1.328;2023-09-07T08:19:30;34.03;;;25.65;;
22363;SDS011;11349;53.412;-1.328;2023-09-07T08:21:57;34.38;;;25.65;;
22363;SDS011;11349;53.412;-1.328;2023-09-07T08:24:23;37.97;;;26.73;;
22363;SDS011;11349;53.412;-1.328;2023-09-07T08:26:49;37.97;;;28.85;;
22363;SDS011;11349;53.412;-1.328;2023-09-07T08:29:19;32.83;;;25.23;;
22363;SDS011;11349;53.412;-1.328;2023-09-07T08:31:45;33.45;;;25.60;;
22363;SDS011;11349;53.412;-1.328;2023-09-07T08:34:13;28.38;;;22.55;;
22363;SDS011;11349;53.412;-1.328;2023-09-07T08:36:41;35.08;;;26.98;;
22363;SDS011;11349;53.412;-1.328;2023-09-07T08:39:07;31.15;;;24.35;;
22363;SDS011;11349;53.412;-1.328;2023-09-07T08:41:37;27.30;;;20.98;;
22363;SDS011;11349;53.412;-1.328;2023-09-07T08:44:27;34.33;;;26.73;;
22363;SDS011;11349;53.412;-1.328;2023-09-07T08:46:54;35.97;;;24.15;;
22363;SDS011;11349;53.412;-1.328;2023-09-07T08:49:20;34.58;;;28.10;;
22363;SDS011;11349;53.412;-1.328;2023-09-07T08:51:48;31.08;;;25.05;;
22363;SDS011;11349;53.412;-1.328;2023-09-07T08:54:15;33.40;;;24.15;;
22363;SDS011;11349;53.412;-1.328;2023-09-07T08:56:40;30.65;;;25.13;;
22363;SDS011;11349;53.412;-1.328;2023-09-07T08:59:06;32.33;;;26.05;;
22363;SDS011;11349;53.412;-1.328;2023-09-07T09:01:32;30.05;;;24.50;;
22363;SDS011;11349;53.412;-1.328;2023-09-07T09:03:58;31.13;;;24.40;;
22363;SDS011;11349;53.412;-1.328;2023-09-07T09:06:24;31.80;;;23.27;;
22363;SDS011;11349;53.412;-1.328;2023-09-07T09:08:54;28.85;;;22.27;;
22363;SDS011;11349;53.412;-1.328;2023-09-07T09:11:22;28.20;;;20.40;;
22363;SDS011;11349;53.412;-1.328;2023-09-07T09:13:50;24.50;;;20.33;;
22363;SDS011;11349;53.412;-1.328;2023-09-07T09:16:17;29.70;;;22.38;;
22363;SDS011;11349;53.412;-1.328;2023-09-07T09:18:50;29.10;;;21.85;;
22363;SDS011;11349;53.412;-1.328;2023-09-07T09:21:26;31.02;;;22.02;;
22363;SDS011;11349;53.412;-1.328;2023-09-07T09:23:53;20.90;;;17.45;;
22363;SDS011;11349;53.412;-1.328;2023-09-07T09:26:22;27.67;;;22.05;;
22363;SDS011;11349;53.412;-1.328;2023-09-07T09:28:48;24.20;;;19.92;;
22363;SDS011;11349;53.412;-1.328;2023-09-07T09:31:18;24.73;;;17.70;;
22363;SDS011;11349;53.412;-1.328;2023-09-07T09:33:47;26.15;;;21.02;;
22363;SDS011;11349;53.412;-1.328;2023-09-07T09:36:16;27.95;;;22.83;;
22363;SDS011;11349;53.412;-1.328;2023-09-07T09:38:46;22.75;;;19.88;;
22363;SDS011;11349;53.412;-1.328;2023-09-07T09:41:18;24.88;;;20.90;;
22363;SDS011;11349;53.412;-1.328;2023-09-07T09:43:45;26.52;;;22.33;;
22363;SDS011;11349;53.412;-1.328;2023-09-07T09:46:14;23.58;;;20.15;;
22363;SDS011;11349;53.412;-1.328;2023-09-07T09:48:40;26.30;;;22.55;;
22363;SDS011;11349;53.412;-1.328;2023-09-07T09:51:07;27.95;;;23.52;;
22363;SDS011;11349;53.412;-1.328;2023-09-07T09:53:33;28.45;;;22.73;;
22363;SDS011;11349;53.412;-1.328;2023-09-07T09:56:00;24.40;;;21.20;;
22363;SDS011;11349;53.412;-1.328;2023-09-07T09:58:26;27.05;;;20.95;;
22363;SDS011;11349;53.412;-1.328;2023-09-07T10:00:53;25.00;;;21.13;;
22363;SDS011;11349;53.412;-1.328;2023-09-07T10:05:51;23.13;;;17.98;;
22363;SDS011;11349;53.412;-1.328;2023-09-07T10:08:18;22.75;;;17.02;;
22363;SDS011;11349;53.412;-1.328;2023-09-07T10:10:48;21.80;;;17.42;;
22363;SDS011;11349;53.412;-1.328;2023-09-07T10:13:28;22.77;;;18.00;;
22363;SDS011;11349;53.412;-1.328;2023-09-07T10:16:02;22.52;;;18.10;;
22363;SDS011;11349;53.412;-1.328;2023-09-07T10:18:35;21.98;;;17.95;;
22363;SDS011;11349;53.412;-1.328;2023-09-07T10:21:02;24.25;;;18.77;;
22363;SDS011;11349;53.412;-1.328;2023-09-07T10:23:38;21.60;;;18.90;;
22363;SDS011;11349;53.412;-1.328;2023-09-07T10:26:05;22.70;;;18.30;;
22363;SDS011;11349;53.412;-1.328;2023-09-07T10:28:35;18.42;;;16.25;;
22363;SDS011;11349;53.412;-1.328;2023-09-07T10:31:12;22.40;;;17.77;;
22363;SDS011;11349;53.412;-1.328;2023-09-07T10:33:39;21.95;;;17.02;;
22363;SDS011;11349;53.412;-1.328;2023-09-07T10:36:05;20.30;;;16.83;;
22363;SDS011;11349;53.412;-1.328;2023-09-07T10:38:34;15.15;;;13.60;;
22363;SDS011;11349;53.412;-1.328;2023-09-07T10:41:02;24.10;;;19.17;;
22363;SDS011;11349;53.412;-1.328;2023-09-07T10:43:32;23.25;;;18.73;;
22363;SDS011;11349;53.412;-1.328;2023-09-07T10:45:59;23.42;;;17.75;;
22363;SDS011;11349;53.412;-1.328;2023-09-07T10:48:25;18.65;;;16.02;;
22363;SDS011;11349;53.412;-1.328;2023-09-07T10:50:54;18.80;;;13.88;;
22363;SDS011;11349;53.412;-1.328;2023-09-07T10:53:26;14.13;;;12.40;;
22363;SDS011;11349;53.412;-1.328;2023-09-07T10:55:53;16.58;;;10.80;;
22363;SDS011;11349;53.412;-1.328;2023-09-07T10:58:25;16.73;;;13.68;;
22363;SDS011;11349;53.412;-1.328;2023-09-07T11:00:53;16.67;;;12.02;;
22363;SDS011;11349;53.412;-1.328;2023-09-07T11:03:19;25.92;;;13.32;;
22363;SDS011;11349;53.412;-1.328;2023-09-07T11:05:45;15.48;;;10.23;;
22363;SDS011;11349;53.412;-1.328;2023-09-07T11:08:11;17.40;;;12.60;;
22363;SDS011;11349;53.412;-1.328;2023-09-07T11:10:37;15.73;;;11.80;;
22363;SDS011;11349;53.412;-1.328;2023-09-07T11:13:03;14.85;;;10.40;;
22363;SDS011;11349;53.412;-1.328;2023-09-07T11:15:30;16.65;;;10.32;;
22363;SDS011;11349;53.412;-1.328;2023-09-07T11:17:57;12.68;;;10.35;;
22363;SDS011;11349;53.412;-1.328;2023-09-07T11:20:23;14.75;;;10.30;;
22363;SDS011;11349;53.412;-1.328;2023-09-07T11:22:50;18.75;;;10.63;;
22363;SDS011;11349;53.412;-1.328;2023-09-07T11:25:15;15.60;;;9.95;;
22363;SDS011;11349;53.412;-1.328;2023-09-07T11:27:41;14.13;;;9.40;;
22363;SDS011;11349;53.412;-1.328;2023-09-07T11:30:07;13.43;;;9.48;;
22363;SDS011;11349;53.412;-1.328;2023-09-07T11:32:36;14.77;;;9.65;;
22363;SDS011;11349;53.412;-1.328;2023-09-07T11:35:03;7.25;;;5.00;;
22363;SDS011;11349;53.412;-1.328;2023-09-07T11:37:32;13.35;;;8.60;;
22363;SDS011;11349;53.412;-1.328;2023-09-07T11:39:59;12.73;;;8.68;;
22363;SDS011;11349;53.412;-1.328;2023-09-07T11:42:25;15.70;;;8.70;;
22363;SDS011;11349;53.412;-1.328;2023-09-07T11:44:50;12.55;;;8.48;;
22363;SDS011;11349;53.412;-1.328;2023-09-07T11:47:16;11.77;;;8.27;;
22363;SDS011;11349;53.412;-1.328;2023-09-07T11:49:44;11.27;;;7.13;;
22363;SDS011;11349;53.412;-1.328;2023-09-07T11:52:10;9.57;;;6.68;;
22363;SDS011;11349;53.412;-1.328;2023-09-07T11:54:35;16.83;;;7.78;;
22363;SDS011;11349;53.412;-1.328;2023-09-07T11:57:02;10.32;;;8.00;;
22363;SDS011;11349;53.412;-1.328;2023-09-07T11:59:28;10.57;;;6.10;;
22363;SDS011;11349;53.412;-1.328;2023-09-07T12:01:54;13.82;;;7.88;;
22363;SDS011;11349;53.412;-1.328;2023-09-07T12:04:20;12.45;;;7.82;;
22363;SDS011;11349;53.412;-1.328;2023-09-07T12:06:45;10.57;;;8.02;;
22363;SDS011;11349;53.412;-1.328;2023-09-07T12:09:11;8.85;;;5.78;;
22363;SDS011;11349;53.412;-1.328;2023-09-07T12:11:37;9.90;;;6.90;;
22363;SDS011;11349;53.412;-1.328;2023-09-07T12:14:03;9.70;;;7.47;;
22363;SDS011;11349;53.412;-1.328;2023-09-07T12:16:30;13.18;;;8.18;;
22363;SDS011;11349;53.412;-1.328;2023-09-07T12:18:56;10.88;;;7.15;;
22363;SDS011;11349;53.412;-1.328;2023-09-07T12:21:21;11.32;;;7.95;;
22363;SDS011;11349;53.412;-1.328;2023-09-07T12:23:47;10.48;;;7.07;;
22363;SDS011;11349;53.412;-1.328;2023-09-07T12:26:13;9.88;;;6.65;;
22363;SDS011;11349;53.412;-1.328;2023-09-07T12:28:39;10.52;;;7.40;;
22363;SDS011;11349;53.412;-1.328;2023-09-07T12:31:05;13.80;;;8.60;;
22363;SDS011;11349;53.412;-1.328;2023-09-07T12:33:31;10.38;;;7.50;;
22363;SDS011;11349;53.412;-1.328;2023-09-07T12:35:58;12.07;;;7.05;;
22363;SDS011;11349;53.412;-1.328;2023-09-07T12:38:24;10.93;;;7.15;;
22363;SDS011;11349;53.412;-1.328;2023-09-07T12:40:53;12.07;;;6.80;;
22363;SDS011;11349;53.412;-1.328;2023-09-07T12:43:19;12.27;;;8.35;;
22363;SDS011;11349;53.412;-1.328;2023-09-07T12:45:45;16.73;;;8.07;;
22363;SDS011;11349;53.412;-1.328;2023-09-07T12:48:11;11.43;;;8.40;;
22363;SDS011;11349;53.412;-1.328;2023-09-07T12:50:37;12.95;;;7.53;;
22363;SDS011;11349;53.412;-1.328;2023-09-07T12:53:05;14.15;;;10.75;;
22363;SDS011;11349;53.412;-1.328;2023-09-07T12:55:31;15.52;;;10.45;;
22363;SDS011;11349;53.412;-1.328;2023-09-07T12:57:58;18.70;;;10.52;;
22363;SDS011;11349;53.412;-1.328;2023-09-07T13:00:25;11.38;;;9.88;;
22363;SDS011;11349;53.412;-1.328;2023-09-07T13:02:51;13.05;;;8.30;;
22363;SDS011;11349;53.412;-1.328;2023-09-07T13:05:17;14.18;;;8.55;;
22363;SDS011;11349;53.412;-1.328;2023-09-07T13:07:44;18.05;;;10.23;;
22363;SDS011;11349;53.412;-1.328;2023-09-07T13:10:10;13.82;;;8.85;;
22363;SDS011;11349;53.412;-1.328;2023-09-07T13:12:36;17.63;;;11.25;;
22363;SDS011;11349;53.412;-1.328;2023-09-07T13:15:02;13.98;;;8.10;;
22363;SDS011;11349;53.412;-1.328;2023-09-07T13:17:29;12.60;;;8.50;;
22363;SDS011;11349;53.412;-1.328;2023-09-07T13:19:55;8.73;;;6.10;;
22363;SDS011;11349;53.412;-1.328;2023-09-07T13:22:20;11.20;;;7.57;;
22363;SDS011;11349;53.412;-1.328;2023-09-07T13:24:46;11.27;;;8.82;;
22363;SDS011;11349;53.412;-1.328;2023-09-07T13:27:12;14.77;;;9.85;;
22363;SDS011;11349;53.412;-1.328;2023-09-07T13:29:38;13.38;;;9.15;;
22363;SDS011;11349;53.412;-1.328;2023-09-07T13:32:03;12.55;;;9.77;;
22363;SDS011;11349;53.412;-1.328;2023-09-07T13:34:29;17.80;;;10.88;;
22363;SDS011;11349;53.412;-1.328;2023-09-07T13:36:55;18.33;;;10.32;;
22363;SDS011;11349;53.412;-1.328;2023-09-07T13:39:21;16.27;;;9.93;;
22363;SDS011;11349;53.412;-1.328;2023-09-07T13:41:47;14.18;;;9.18;;
22363;SDS011;11349;53.412;-1.328;2023-09-07T13:44:14;13.30;;;10.02;;
22363;SDS011;11349;53.412;-1.328;2023-09-07T13:46:40;21.55;;;10.73;;
22363;SDS011;11349;53.412;-1.328;2023-09-07T13:49:05;13.60;;;8.98;;
22363;SDS011;11349;53.412;-1.328;2023-09-07T13:51:31;13.93;;;9.50;;
22363;SDS011;11349;53.412;-1.328;2023-09-07T13:54:03;14.10;;;9.00;;
22363;SDS011;11349;53.412;-1.328;2023-09-07T13:56:29;11.10;;;7.93;;
22363;SDS011;11349;53.412;-1.328;2023-09-07T13:58:55;13.48;;;7.88;;
22363;SDS011;11349;53.412;-1.328;2023-09-07T14:01:21;11.35;;;7.95;;
22363;SDS011;11349;53.412;-1.328;2023-09-07T14:03:48;13.63;;;8.95;;
22363;SDS011;11349;53.412;-1.328;2023-09-07T14:06:14;14.82;;;8.77;;
22363;SDS011;11349;53.412;-1.328;2023-09-07T14:08:40;13.27;;;7.97;;
22363;SDS011;11349;53.412;-1.328;2023-09-07T14:11:05;11.30;;;7.13;;
22363;SDS011;11349;53.412;-1.328;2023-09-07T14:13:31;12.63;;;7.63;;